Time;durP1;ratioP1;P1;durP2;ratioP2;P2;SDS_P1;SDS_P2;PMS_P1;PMS_P2;Temp;Humidity;BMP_temperature;BMP_pressure;BME280_temperature;BME280_humidity;BME280_pressure;Samples;Min_cycle;Max_cycle;Signal;HPM_P1;HPM_P2
2020/12/30 00:01:39;;;;;;;;;;;13.80;67.20;;;;;;5046922;28;20931;-81
2020/12/30 00:04:16;;;;;;;0.20;0.20;;;13.70;67.20;;;;;;5047262;28;19908;-78
2020/12/30 00:06:46;;;;;;;0.20;0.20;;;13.80;67.30;;;;;;5027581;28;20031;-81
2020/12/30 00:09:17;;;;;;;0.20;0.20;;;13.80;67.30;;;;;;5024578;28;20114;-82
2020/12/30 00:11:47;;;;;;;0.20;0.20;;;13.80;67.30;;;;;;5042481;28;20040;-78
2020/12/30 00:14:12;;;;;;;0.45;0.32;;;13.80;67.30;;;;;;5023869;28;20118;-79
2020/12/30 00:16:38;;;;;;;0.20;0.10;;;13.80;67.30;;;;;;5042583;28;20063;-78
2020/12/30 00:19:09;;;;;;;0.20;0.20;;;13.80;67.30;;;;;;5025496;28;20036;-80
2020/12/30 00:21:48;;;;;;;0.25;0.20;;;13.80;67.30;;;;;;5024873;28;20036;-80
2020/12/30 00:24:14;;;;;;;0.63;0.55;;;13.80;67.30;;;;;;5025405;28;20064;-79
2020/12/30 00:26:39;;;;;;;0.22;0.22;;;13.80;67.30;;;;;;5044669;28;20067;-78
2020/12/30 00:29:26;;;;;;;0.28;0.25;;;13.80;67.30;;;;;;5047537;28;20040;-78
2020/12/30 00:31:52;;;;;;;0.10;0.10;;;13.80;67.30;;;;;;5041401;28;20044;-79
2020/12/30 00:34:30;;;;;;;0.20;0.20;;;13.70;67.30;;;;;;5036112;28;20053;-78
2020/12/30 00:37:03;;;;;;;0.10;0.10;;;13.70;67.30;;;;;;5021930;28;20041;-82
2020/12/30 00:39:33;;;;;;;0.32;0.20;;;13.80;67.30;;;;;;5022693;28;20466;-78
2020/12/30 00:41:59;;;;;;;0.13;0.13;;;13.80;67.40;;;;;;5008045;28;20044;-79
2020/12/30 00:44:24;;;;;;;0.22;0.20;;;13.80;67.40;;;;;;5008814;28;20382;-78
2020/12/30 00:46:57;;;;;;;0.40;0.30;;;13.80;67.30;;;;;;5008769;28;20026;-78
2020/12/30 00:49:37;;;;;;;0.25;0.17;;;13.80;67.30;;;;;;5010383;28;20034;-79
2020/12/30 00:52:07;;;;;;;0.20;0.20;;;13.80;67.30;;;;;;5011748;28;20465;-82
2020/12/30 00:54:37;;;;;;;0.38;0.20;;;13.80;67.30;;;;;;5025822;28;20493;-78
2020/12/30 00:57:07;;;;;;;0.20;0.20;;;13.80;67.30;;;;;;5029025;28;20091;-79
2020/12/30 00:59:38;;;;;;;0.40;0.35;;;13.70;67.30;;;;;;5028188;28;20445;-78
2020/12/30 01:02:04;;;;;;;0.20;0.20;;;13.80;67.30;;;;;;5011226;28;20067;-79
2020/12/30 01:04:43;;;;;;;0.20;0.20;;;13.80;67.30;;;;;;5010389;28;20899;-78
2020/12/30 01:07:11;;;;;;;0.10;0.10;;;13.70;67.30;;;;;;5027727;28;20037;-77
2020/12/30 01:09:44;;;;;;;0.60;0.28;;;13.70;67.40;;;;;;5011280;28;20580;-79
2020/12/30 01:12:10;;;;;;;0.50;0.43;;;13.80;67.40;;;;;;5027310;28;20045;-78
2020/12/30 01:14:42;;;;;;;0.10;0.10;;;13.70;67.40;;;;;;5030483;28;20426;-78
2020/12/30 01:17:07;;;;;;;0.20;0.20;;;13.70;67.40;;;;;;5027032;28;20022;-78
2020/12/30 01:19:45;;;;;;;0.47;0.20;;;13.70;67.40;;;;;;5010231;28;20576;-78
2020/12/30 01:22:16;;;;;;;0.20;0.20;;;13.70;67.40;;;;;;5011965;28;20080;-80
2020/12/30 01:24:42;;;;;;;0.13;0.13;;;13.70;67.40;;;;;;5013398;28;20375;-78
2020/12/30 01:27:22;;;;;;;0.20;0.20;;;13.70;67.40;;;;;;5030608;28;20064;-78
2020/12/30 01:29:52;;;;;;;0.38;0.25;;;13.70;67.40;;;;;;5010356;28;20036;-78
2020/12/30 01:32:33;;;;;;;0.40;0.40;;;13.70;67.40;;;;;;5026703;28;20047;-78
2020/12/30 01:35:07;;;;;;;0.13;0.13;;;13.70;67.40;;;;;;5030069;28;20478;-77
2020/12/30 01:37:44;;;;;;;0.20;0.20;;;13.70;67.40;;;;;;5048926;28;20024;-77
2020/12/30 01:40:17;;;;;;;0.20;0.20;;;13.70;67.40;;;;;;5040236;28;20132;-78
2020/12/30 01:42:56;;;;;;;0.20;0.20;;;13.70;67.40;;;;;;5029016;28;20043;-78
2020/12/30 01:45:36;;;;;;;0.38;0.20;;;13.70;67.40;;;;;;5027912;28;20690;-79
2020/12/30 01:48:18;;;;;;;0.55;0.20;;;13.70;67.50;;;;;;5046337;28;20030;-78
2020/12/30 01:50:49;;;;;;;0.20;0.20;;;13.70;67.50;;;;;;5027134;28;20029;-78
2020/12/30 01:53:16;;;;;;;0.30;0.30;;;13.70;67.50;;;;;;5045557;28;20025;-82
2020/12/30 01:55:46;;;;;;;0.57;0.30;;;13.70;67.50;;;;;;5028793;28;20032;-80
2020/12/30 01:58:27;;;;;;;0.10;0.10;;;13.70;67.50;;;;;;5039953;28;20021;-79
2020/12/30 02:01:02;;;;;;;0.80;0.30;;;13.70;67.50;;;;;;5043700;28;20033;-79
2020/12/30 02:03:28;;;;;;;0.30;0.20;;;13.70;67.50;;;;;;5044285;28;20102;-79
2020/12/30 02:06:01;;;;;;;0.40;0.20;;;13.70;67.50;;;;;;5043993;28;20455;-78
2020/12/30 02:08:31;;;;;;;0.40;0.20;;;13.70;67.50;;;;;;5028003;28;20473;-78
2020/12/30 02:11:11;;;;;;;0.28;0.28;;;13.70;67.50;;;;;;5046125;28;20087;-81
2020/12/30 02:13:37;;;;;;;0.30;0.30;;;13.70;67.50;;;;;;5044984;28;20039;-78
2020/12/30 02:16:03;;;;;;;0.22;0.20;;;13.70;67.50;;;;;;5026047;28;20083;-79
2020/12/30 02:18:42;;;;;;;0.10;0.10;;;13.70;67.50;;;;;;5028336;28;20577;-81
2020/12/30 02:21:16;;;;;;;0.20;0.20;;;13.70;67.50;;;;;;5043534;28;20025;-81
2020/12/30 02:23:44;;;;;;;0.28;0.22;;;13.70;67.50;;;;;;5045757;28;20065;-80
2020/12/30 02:26:17;;;;;;;0.30;0.30;;;13.70;67.50;;;;;;5026256;28;20029;-79
2020/12/30 02:28:42;;;;;;;0.52;0.30;;;13.70;67.50;;;;;;5045908;28;20047;-78
2020/12/30 02:31:13;;;;;;;0.52;0.20;;;13.70;67.50;;;;;;5043808;28;20493;-80
2020/12/30 02:33:43;;;;;;;0.20;0.20;;;13.70;67.50;;;;;;5045253;28;20387;-79
2020/12/30 02:36:09;;;;;;;0.35;0.35;;;13.70;67.50;;;;;;5026640;28;20083;-78
2020/12/30 02:38:48;;;;;;;0.65;0.20;;;13.70;67.50;;;;;;5027323;28;20025;-78
2020/12/30 02:41:19;;;;;;;0.20;0.20;;;13.70;67.50;;;;;;5041572;28;20037;-79
2020/12/30 02:43:50;;;;;;;0.28;0.28;;;13.70;67.50;;;;;;5026894;28;20389;-78
2020/12/30 02:46:33;;;;;;;0.20;0.20;;;13.70;67.60;;;;;;5041216;28;20481;-78
2020/12/30 02:49:04;;;;;;;0.20;0.20;;;13.60;67.60;;;;;;5044008;28;20112;-78
2020/12/30 02:51:34;;;;;;;0.40;0.40;;;13.70;67.60;;;;;;5029668;28;20039;-78
2020/12/30 02:54:00;;;;;;;0.10;0.10;;;13.70;67.60;;;;;;5040983;28;20028;-79
2020/12/30 02:56:25;;;;;;;0.77;0.30;;;13.70;67.60;;;;;;5042068;28;20044;-78
2020/12/30 02:58:58;;;;;;;0.80;0.50;;;13.70;67.60;;;;;;5041363;28;20032;-80
2020/12/30 03:01:24;;;;;;;0.52;0.25;;;13.70;67.60;;;;;;5041446;28;20029;-78
2020/12/30 03:03:52;;;;;;;0.40;0.25;;;13.70;67.60;;;;;;5026116;28;20697;-78
2020/12/30 03:06:25;;;;;;;0.68;0.40;;;13.70;67.50;;;;;;5023507;28;20148;-78
2020/12/30 03:08:53;;;;;;;0.30;0.30;;;13.70;67.60;;;;;;5041460;28;20064;-78
2020/12/30 03:11:25;;;;;;;0.38;0.28;;;13.70;67.60;;;;;;5043334;28;20063;-79
2020/12/30 03:13:51;;;;;;;0.20;0.20;;;13.70;67.60;;;;;;5025652;28;20373;-78
2020/12/30 03:16:16;;;;;;;0.15;0.15;;;13.70;67.60;;;;;;5042170;28;20039;-78
2020/12/30 03:18:47;;;;;;;0.20;0.20;;;13.70;67.60;;;;;;5043412;28;20395;-78
2020/12/30 03:21:20;;;;;;;0.13;0.13;;;13.70;67.60;;;;;;5044214;28;20029;-78
2020/12/30 03:23:51;;;;;;;0.20;0.20;;;13.70;67.60;;;;;;5042029;28;20418;-80
2020/12/30 03:26:21;;;;;;;0.20;0.20;;;13.70;67.60;;;;;;5044919;28;20458;-78
2020/12/30 03:28:46;;;;;;;0.20;0.20;;;13.70;67.60;;;;;;5039611;28;20082;-78
2020/12/30 03:31:17;;;;;;;0.30;0.20;;;13.70;67.60;;;;;;5041627;28;20421;-79
2020/12/30 03:33:55;;;;;;;0.30;0.30;;;13.70;67.60;;;;;;5031393;28;20128;-80
2020/12/30 03:36:25;;;;;;;0.30;0.30;;;13.70;67.60;;;;;;5047927;28;20036;-78
2020/12/30 03:38:53;;;;;;;0.47;0.22;;;13.70;67.50;;;;;;5026558;28;20424;-82
2020/12/30 03:41:24;;;;;;;;;;;13.70;67.50;;;;;;5024183;28;20040;-78
2020/12/30 03:43:56;;;;;;;0.10;0.10;;;13.70;67.50;;;;;;5043794;28;19956;-83
2020/12/30 03:46:35;;;;;;;0.35;0.35;;;13.70;67.60;;;;;;5041951;28;20029;-80
2020/12/30 03:49:01;;;;;;;0.10;0.10;;;13.70;67.60;;;;;;5025679;28;20107;-78
2020/12/30 03:51:30;;;;;;;0.30;0.30;;;13.70;67.60;;;;;;5024302;28;20043;-81
2020/12/30 03:54:07;;;;;;;0.32;0.25;;;13.70;67.60;;;;;;5023651;28;20029;-78
2020/12/30 03:56:34;;;;;;;0.13;0.13;;;13.70;67.60;;;;;;5024303;28;20135;-78
2020/12/30 03:59:02;;;;;;;0.60;0.50;;;13.70;67.60;;;;;;5044182;28;20029;-77
2020/12/30 04:01:34;;;;;;;0.10;0.10;;;13.70;67.60;;;;;;5043635;28;20059;-80
2020/12/30 04:04:05;;;;;;;0.15;0.15;;;13.70;67.60;;;;;;5024606;28;20093;-78
2020/12/30 04:06:32;;;;;;;0.45;0.30;;;13.70;67.60;;;;;;5042811;28;20029;-78
2020/12/30 04:08:57;;;;;;;0.65;0.35;;;13.70;67.60;;;;;;5042169;28;20028;-78
2020/12/30 04:11:25;;;;;;;0.60;0.20;;;13.70;67.50;;;;;;5044435;28;20040;-78
2020/12/30 04:13:50;;;;;;;0.30;0.30;;;13.70;67.50;;;;;;5039670;28;20091;-80
2020/12/30 04:16:32;;;;;;;0.30;0.20;;;13.70;67.50;;;;;;5024178;28;20139;-82
2020/12/30 04:19:02;;;;;;;0.30;0.30;;;13.70;67.50;;;;;;5032388;28;20029;-77
2020/12/30 04:21:30;;;;;;;0.20;0.20;;;13.70;67.50;;;;;;5046582;28;20028;-78
2020/12/30 04:24:01;;;;;;;;;;;13.70;67.50;;;;;;5044402;28;20033;-78
2020/12/30 04:26:31;;;;;;;0.25;0.20;;;13.70;67.60;;;;;;5045739;28;19917;-81
2020/12/30 04:28:58;;;;;;;0.20;0.10;;;13.70;67.50;;;;;;5028312;28;20738;-78
2020/12/30 04:31:30;;;;;;;0.40;0.30;;;13.70;67.50;;;;;;5046448;28;20521;-84
2020/12/30 04:34:00;;;;;;;0.43;0.30;;;13.70;67.50;;;;;;5026299;28;20041;-78
2020/12/30 04:36:26;;;;;;;0.30;0.30;;;13.70;67.60;;;;;;5029364;28;20033;-82
2020/12/30 04:38:52;;;;;;;0.20;0.20;;;13.70;67.50;;;;;;5045003;28;20021;-78
2020/12/30 04:41:20;;;;;;;0.20;0.20;;;13.70;67.50;;;;;;5043050;28;20052;-79
2020/12/30 04:44:00;;;;;;;0.22;0.22;;;13.70;67.50;;;;;;5045727;28;20025;-85
2020/12/30 04:46:31;;;;;;;0.20;0.20;;;13.70;67.50;;;;;;5044438;28;20033;-78
2020/12/30 04:49:02;;;;;;;0.30;0.30;;;13.70;67.50;;;;;;5041179;28;20025;-79
2020/12/30 04:51:34;;;;;;;0.20;0.20;;;13.70;67.50;;;;;;5028918;28;20060;-78
2020/12/30 04:54:05;;;;;;;0.63;0.20;;;13.70;67.50;;;;;;5028723;28;20021;-80
2020/12/30 04:56:46;;;;;;;1.55;0.40;;;13.70;67.50;;;;;;5029549;28;20039;-79
2020/12/30 04:59:18;;;;;;;0.20;0.20;;;13.70;67.50;;;;;;5045474;28;20029;-83
2020/12/30 05:02:01;;;;;;;0.20;0.20;;;13.70;67.50;;;;;;5030475;28;20036;-78
2020/12/30 05:04:40;;;;;;;0.10;0.10;;;13.70;67.50;;;;;;5048375;28;20029;-79
2020/12/30 05:07:11;;;;;;;0.10;0.10;;;13.70;67.50;;;;;;5050289;28;20021;-79
2020/12/30 05:09:42;;;;;;;0.22;0.22;;;13.70;67.50;;;;;;5035560;28;20028;-79
2020/12/30 05:12:25;;;;;;;0.20;0.20;;;13.70;67.50;;;;;;5038946;28;20416;-79
2020/12/30 05:14:56;;;;;;;0.70;0.40;;;13.70;67.50;;;;;;5051328;28;20025;-78
2020/12/30 05:17:28;;;;;;;0.20;0.20;;;13.70;67.50;;;;;;5053565;28;20025;-79
2020/12/30 05:20:00;;;;;;;0.13;0.10;;;13.70;67.50;;;;;;5035795;28;20021;-79
2020/12/30 05:22:26;;;;;;;0.20;0.20;;;13.70;67.50;;;;;;5033919;28;20383;-78
2020/12/30 05:24:54;;;;;;;0.40;0.40;;;13.70;67.50;;;;;;5033781;28;20074;-79
2020/12/30 05:27:24;;;;;;;0.30;0.25;;;13.70;67.40;;;;;;5060076;28;20111;-79
2020/12/30 05:29:56;;;;;;;0.30;0.30;;;13.70;67.50;;;;;;5029918;28;20096;-78
2020/12/30 05:32:22;;;;;;;0.30;0.30;;;13.70;67.50;;;;;;5050069;28;20036;-79
2020/12/30 05:34:54;;;;;;;2.30;1.35;;;13.70;67.50;;;;;;5054650;28;20134;-79
2020/12/30 05:37:30;;;;;;;0.47;0.30;;;13.70;67.40;;;;;;5037183;28;20047;-79
2020/12/30 05:40:00;;;;;;;0.20;0.20;;;13.70;67.40;;;;;;5036467;28;20104;-77
2020/12/30 05:42:33;;;;;;;0.40;0.10;;;13.70;67.50;;;;;;5048504;28;20032;-77
2020/12/30 05:45:01;;;;;;;0.35;0.25;;;13.80;67.40;;;;;;5046593;28;20048;-77
2020/12/30 05:47:32;;;;;;;0.32;0.30;;;13.70;67.50;;;;;;5049546;28;20111;-78
2020/12/30 05:50:04;;;;;;;0.40;0.30;;;13.70;67.50;;;;;;5049959;28;20025;-77
2020/12/30 05:52:35;;;;;;;0.70;0.28;;;13.70;67.50;;;;;;5054052;28;20326;-76
2020/12/30 05:55:22;;;;;;;0.20;0.20;;;13.70;67.40;;;;;;5027847;28;20043;-78
2020/12/30 05:57:53;;;;;;;0.30;0.30;;;13.70;67.50;;;;;;5029695;28;20037;-80
2020/12/30 06:00:36;;;;;;;0.22;0.20;;;13.70;67.40;;;;;;5027922;28;20025;-77
2020/12/30 06:03:07;;;;;;;0.30;0.30;;;13.70;67.40;;;;;;5028656;28;20033;-76
2020/12/30 06:05:37;;;;;;;0.20;0.20;;;13.70;67.40;;;;;;5047979;28;20039;-78
2020/12/30 06:08:04;;;;;;;0.17;0.17;;;13.70;67.50;;;;;;5028339;28;20033;-77
2020/12/30 06:10:45;;;;;;;0.30;0.30;;;13.70;67.40;;;;;;5029004;28;20036;-78
2020/12/30 06:13:20;;;;;;;0.20;0.20;;;13.80;67.50;;;;;;5030875;28;20044;-76
2020/12/30 06:15:54;;;;;;;0.82;0.50;;;13.70;67.40;;;;;;5042609;28;20029;-78
2020/12/30 06:18:22;;;;;;;0.15;0.15;;;13.80;67.40;;;;;;5044489;28;20482;-78
2020/12/30 06:20:54;;;;;;;0.20;0.20;;;13.80;67.40;;;;;;5012028;28;20919;-77
2020/12/30 06:23:34;;;;;;;0.50;0.30;;;13.80;67.40;;;;;;5029176;28;20044;-77
2020/12/30 06:26:09;;;;;;;0.30;0.30;;;13.70;67.40;;;;;;5047988;28;20033;-77
2020/12/30 06:28:49;;;;;;;0.52;0.38;;;13.80;67.40;;;;;;5029804;28;20029;-78
2020/12/30 06:31:19;;;;;;;0.20;0.20;;;13.70;67.40;;;;;;5026435;28;20398;-76
2020/12/30 06:33:49;;;;;;;0.20;0.20;;;13.70;67.40;;;;;;5042164;28;20049;-77
2020/12/30 06:36:24;;;;;;;0.20;0.20;;;13.80;67.40;;;;;;5024849;28;20096;-77
2020/12/30 06:39:03;;;;;;;0.15;0.15;;;13.80;67.40;;;;;;5023433;28;20025;-77
2020/12/30 06:41:54;;;;;;;0.30;0.30;;;13.70;67.40;;;;;;5026696;28;20033;-76
2020/12/30 06:44:41;;;;;;;0.40;0.30;;;13.80;67.40;;;;;;5020790;28;20060;-78
2020/12/30 06:47:14;;;;;;;0.30;0.30;;;13.80;67.40;;;;;;5006566;28;20431;-77
2020/12/30 06:49:44;;;;;;;0.35;0.30;;;13.80;67.40;;;;;;5024553;28;20109;-79
2020/12/30 06:52:38;;;;;;;0.10;0.10;;;13.80;67.40;;;;;;5020572;28;20033;-81
2020/12/30 06:55:37;;;;;;;0.43;0.30;;;13.80;67.40;;;;;;5023819;28;20429;-77
2020/12/30 06:58:18;;;;;;;;;;;;;;;;;;;;;
2020/12/30 07:00:57;;;;;;;1.17;0.25;;;13.80;67.40;;;;;;5023644;28;20035;-77
2020/12/30 07:03:31;;;;;;;0.30;0.30;;;13.80;67.40;;;;;;5026300;28;20037;-79
2020/12/30 07:06:25;;;;;;;0.22;0.20;;;13.80;67.50;;;;;;5024858;28;20391;-79
2020/12/30 07:08:51;;;;;;;0.15;0.10;;;13.70;67.40;;;;;;5025290;28;20033;-80
2020/12/30 07:11:56;;;;;;;0.38;0.30;;;13.80;67.40;;;;;;5023341;28;20052;-77
2020/12/30 07:14:27;;;;;;;0.20;0.20;;;13.80;67.40;;;;;;4977914;28;20038;-79
2020/12/30 07:17:00;;;;;;;0.22;0.22;;;13.80;67.40;;;;;;4968584;28;20030;-77
2020/12/30 07:19:40;;;;;;;0.30;0.30;;;13.80;67.40;;;;;;4978612;28;20078;-77
2020/12/30 07:22:15;;;;;;;0.77;0.28;;;13.80;67.40;;;;;;4980167;28;20104;-76
2020/12/30 07:24:49;;;;;;;0.30;0.30;;;13.80;67.40;;;;;;4977351;28;20407;-77
2020/12/30 07:27:33;;;;;;;0.10;0.10;;;13.80;67.30;;;;;;4977380;28;20101;-77
2020/12/30 07:30:05;;;;;;;0.20;0.20;;;13.80;67.40;;;;;;4966344;28;20121;-78
2020/12/30 07:32:38;;;;;;;0.22;0.20;;;13.80;67.30;;;;;;4984369;28;20136;-78
2020/12/30 07:35:11;;;;;;;0.20;0.20;;;13.80;67.40;;;;;;4995759;28;20050;-79
2020/12/30 07:37:42;;;;;;;0.20;0.20;;;13.80;67.30;;;;;;4983920;28;20034;-77
2020/12/30 07:40:18;;;;;;;0.20;0.20;;;13.80;67.30;;;;;;4991747;28;20034;-76
2020/12/30 07:42:54;;;;;;;0.52;0.30;;;13.80;67.30;;;;;;4997893;28;20036;-77
2020/12/30 07:45:36;;;;;;;0.20;0.20;;;13.80;67.30;;;;;;5025316;28;20544;-77
2020/12/30 07:48:08;;;;;;;0.25;0.20;;;13.80;67.30;;;;;;5025100;28;20402;-77
2020/12/30 07:50:59;;;;;;;0.10;0.10;;;13.80;67.30;;;;;;5026275;28;20048;-77
2020/12/30 07:53:30;;;;;;;0.35;0.17;;;13.80;67.30;;;;;;5040723;28;20029;-77
2020/12/30 07:55:55;;;;;;;0.17;0.17;;;13.80;67.30;;;;;;5043134;28;20029;-78
2020/12/30 07:58:21;;;;;;;0.43;0.35;;;13.80;67.20;;;;;;5046430;28;20025;-80
2020/12/30 08:00:51;;;;;;;0.52;0.30;;;13.80;67.30;;;;;;5025154;28;20045;-79
2020/12/30 08:03:22;;;;;;;0.38;0.30;;;13.80;67.30;;;;;;5040946;28;20060;-77
2020/12/30 08:05:51;;;;;;;0.35;0.30;;;13.80;67.20;;;;;;5043150;28;20057;-77
2020/12/30 08:08:20;;;;;;;0.22;0.20;;;13.80;67.20;;;;;;5024048;28;20057;-77
2020/12/30 08:10:55;;;;;;;0.20;0.20;;;13.80;67.20;;;;;;5041454;28;20085;-77
2020/12/30 08:13:24;;;;;;;0.20;0.20;;;13.80;67.20;;;;;;5045484;28;20025;-80
2020/12/30 08:15:53;;;;;;;;;;;13.80;67.20;;;;;;5044798;28;20104;-78
2020/12/30 08:18:18;;;;;;;0.30;0.30;;;13.80;67.10;;;;;;5043572;28;19920;-78
2020/12/30 08:20:44;;;;;;;0.30;0.30;;;13.80;67.10;;;;;;5044659;28;20091;-78
2020/12/30 08:23:20;;;;;;;0.35;0.30;;;13.80;67.10;;;;;;5046358;28;20029;-83
2020/12/30 08:26:11;;;;;;;0.30;0.28;;;13.80;67.10;;;;;;5042829;28;20462;-79
2020/12/30 08:28:39;;;;;;;0.15;0.15;;;13.80;67.10;;;;;;5045208;28;20022;-79
2020/12/30 08:31:14;;;;;;;0.43;0.30;;;13.80;67.10;;;;;;5042867;28;20055;-79
2020/12/30 08:33:52;;;;;;;0.20;0.20;;;13.80;67.10;;;;;;5039554;28;20088;-80
2020/12/30 08:36:25;;;;;;;0.68;0.30;;;13.80;67.10;;;;;;5030266;28;20038;-78
2020/12/30 08:38:56;;;;;;;0.13;0.13;;;13.80;67.10;;;;;;5008892;28;20029;-80
2020/12/30 08:41:32;;;;;;;0.30;0.20;;;13.80;67.10;;;;;;5025178;28;20493;-78
2020/12/30 08:44:00;;;;;;;0.30;0.20;;;13.80;67.10;;;;;;5020686;28;20041;-79
2020/12/30 08:46:40;;;;;;;0.40;0.20;;;13.80;67.10;;;;;;5022292;28;20022;-82
2020/12/30 08:49:20;;;;;;;0.20;0.20;;;13.80;67.10;;;;;;5005989;28;20087;-79
2020/12/30 08:51:46;;;;;;;0.32;0.32;;;13.90;67.00;;;;;;5019601;28;20056;-78
2020/12/30 08:54:25;;;;;;;0.35;0.30;;;13.90;67.10;;;;;;5019869;28;20030;-79
2020/12/30 08:57:06;;;;;;;0.20;0.20;;;13.80;67.10;;;;;;5022686;28;20033;-79
2020/12/30 08:59:32;;;;;;;0.52;0.25;;;13.90;67.10;;;;;;5023785;28;20878;-79
2020/12/30 09:02:19;;;;;;;0.40;0.17;;;13.80;67.00;;;;;;5023366;28;20112;-80
2020/12/30 09:04:54;;;;;;;0.20;0.20;;;13.90;67.00;;;;;;5023877;28;20029;-78
2020/12/30 09:07:27;;;;;;;0.20;0.20;;;13.90;67.00;;;;;;5027175;28;20021;-79
2020/12/30 09:10:10;;;;;;;0.47;0.17;;;13.90;66.90;;;;;;5008992;28;20145;-79
2020/12/30 09:12:39;;;;;;;0.10;0.10;;;13.90;66.90;;;;;;5028561;28;20026;-79
2020/12/30 09:15:06;;;;;;;0.35;0.30;;;13.90;66.90;;;;;;5028631;28;20056;-78
2020/12/30 09:17:33;;;;;;;0.25;0.22;;;13.90;66.90;;;;;;5022516;28;20025;-80
2020/12/30 09:20:17;;;;;;;0.20;0.20;;;13.90;66.80;;;;;;5024330;28;20072;-78
2020/12/30 09:22:47;;;;;;;0.20;0.20;;;13.90;66.80;;;;;;5022926;28;20026;-79
2020/12/30 09:25:27;;;;;;;0.10;0.10;;;14.00;66.80;;;;;;5024266;28;20033;-81
2020/12/30 09:27:58;;;;;;;0.77;0.43;;;14.00;66.70;;;;;;5009505;28;20459;-84
2020/12/30 09:30:35;;;;;;;0.17;0.13;;;14.00;66.70;;;;;;5025471;28;20037;-80
2020/12/30 09:33:11;;;;;;;0.20;0.20;;;14.00;66.70;;;;;;5007740;28;20026;-79
2020/12/30 09:35:42;;;;;;;0.20;0.20;;;14.00;66.70;;;;;;5045524;28;20021;-79
2020/12/30 09:38:18;;;;;;;0.30;0.30;;;14.00;66.70;;;;;;5048258;28;20029;-83
2020/12/30 09:40:49;;;;;;;0.20;0.20;;;14.00;66.70;;;;;;5050566;28;20159;-78
2020/12/30 09:43:30;;;;;;;0.20;0.20;;;14.00;66.70;;;;;;5039584;28;20029;-79
2020/12/30 09:46:06;;;;;;;0.30;0.30;;;14.00;66.70;;;;;;5043490;28;20037;-78
2020/12/30 09:48:34;;;;;;;0.35;0.35;;;14.00;66.70;;;;;;5049767;28;20120;-80
2020/12/30 09:51:04;;;;;;;1.48;0.20;;;14.00;66.70;;;;;;5052408;28;20040;-79
2020/12/30 09:53:30;;;;;;;0.20;0.20;;;14.00;66.60;;;;;;5050318;28;20025;-79
2020/12/30 09:56:00;;;;;;;0.45;0.30;;;14.00;66.60;;;;;;5050271;28;20124;-79
2020/12/30 09:58:31;;;;;;;0.40;0.30;;;14.00;66.60;;;;;;5048971;28;20048;-78
2020/12/30 10:01:02;;;;;;;0.20;0.20;;;14.00;66.60;;;;;;5046278;28;20071;-79
2020/12/30 10:03:30;;;;;;;0.10;0.10;;;14.00;66.60;;;;;;5029757;28;20068;-79
2020/12/30 10:05:57;;;;;;;0.20;0.20;;;14.00;66.70;;;;;;5041451;28;20029;-80
2020/12/30 10:08:22;;;;;;;0.30;0.30;;;14.00;66.60;;;;;;5051952;28;20470;-82
2020/12/30 10:10:48;;;;;;;0.10;0.10;;;14.00;66.60;;;;;;5052663;28;20048;-79
2020/12/30 10:13:18;;;;;;;0.28;0.20;;;14.00;66.60;;;;;;5045849;28;20043;-79
2020/12/30 10:15:48;;;;;;;0.32;0.32;;;14.00;66.50;;;;;;5047875;28;20029;-79
2020/12/30 10:18:27;;;;;;;0.20;0.20;;;14.00;66.50;;;;;;5044398;28;20021;-79
2020/12/30 10:20:56;;;;;;;0.30;0.10;;;14.00;66.50;;;;;;5049561;28;20025;-79
2020/12/30 10:23:21;;;;;;;0.10;0.10;;;14.00;66.50;;;;;;5031629;28;20036;-80
2020/12/30 10:26:10;;;;;;;0.20;0.17;;;14.00;66.40;;;;;;5048631;28;20409;-79
2020/12/30 10:28:50;;;;;;;0.30;0.30;;;14.10;66.40;;;;;;5045145;28;20029;-79
2020/12/30 10:31:20;;;;;;;0.30;0.30;;;14.10;66.40;;;;;;5034448;28;20087;-79
2020/12/30 10:33:49;;;;;;;0.15;0.15;;;14.10;66.30;;;;;;5029046;28;20064;-79
2020/12/30 10:36:20;;;;;;;0.90;0.20;;;14.10;66.30;;;;;;5048945;28;20021;-78
2020/12/30 10:38:46;;;;;;;0.47;0.47;;;14.10;66.30;;;;;;5049179;28;20025;-79
2020/12/30 10:41:16;;;;;;;0.30;0.30;;;14.10;66.30;;;;;;5028954;28;20077;-79
2020/12/30 10:43:42;;;;;;;0.50;0.20;;;14.10;66.30;;;;;;5026587;28;20492;-79
2020/12/30 10:46:15;;;;;;;0.45;0.20;;;14.10;66.20;;;;;;5028904;28;20048;-79
2020/12/30 10:48:46;;;;;;;0.10;0.10;;;14.10;66.20;;;;;;5030774;28;20021;-79
2020/12/30 10:51:18;;;;;;;0.30;0.20;;;14.10;66.20;;;;;;5031459;28;20036;-79
2020/12/30 10:53:51;;;;;;;0.30;0.13;;;14.10;66.20;;;;;;5027324;28;20436;-80
2020/12/30 10:56:29;;;;;;;0.10;0.10;;;14.10;66.20;;;;;;5029981;28;20440;-80
2020/12/30 10:58:58;;;;;;;0.60;0.30;;;14.10;66.10;;;;;;5045416;28;20508;-78
2020/12/30 11:01:23;;;;;;;;;;;14.20;66.20;;;;;;5032321;28;20470;-80
2020/12/30 11:03:53;;;;;;;0.30;0.20;;;14.20;66.20;;;;;;5030993;28;19915;-79
2020/12/30 11:06:24;;;;;;;0.20;0.20;;;14.20;66.20;;;;;;5046351;28;20056;-80
2020/12/30 11:09:02;;;;;;;0.82;0.28;;;14.10;66.20;;;;;;5044817;28;20021;-81
2020/12/30 11:11:28;;;;;;;0.20;0.20;;;14.20;66.20;;;;;;5045418;28;20036;-79
2020/12/30 11:13:53;;;;;;;0.20;0.20;;;14.20;66.20;;;;;;5028440;28;20442;-79
2020/12/30 11:16:19;;;;;;;0.20;0.20;;;14.20;66.20;;;;;;5047593;28;20494;-78
2020/12/30 11:18:47;;;;;;;0.10;0.10;;;14.20;66.10;;;;;;5049597;28;20031;-81
2020/12/30 11:21:17;;;;;;;;;;;14.20;66.20;;;;;;5030453;28;20048;-79
2020/12/30 11:23:54;;;;;;;1.98;0.20;;;14.20;66.10;;;;;;5046110;28;19912;-80
2020/12/30 11:26:31;;;;;;;0.40;0.32;;;14.20;66.10;;;;;;5047607;28;20397;-82
2020/12/30 11:29:01;;;;;;;0.30;0.30;;;14.20;66.10;;;;;;5031017;28;20056;-79
2020/12/30 11:31:27;;;;;;;0.47;0.35;;;14.20;66.10;;;;;;5044371;28;20033;-81
2020/12/30 11:33:52;;;;;;;1.20;0.47;;;14.20;66.20;;;;;;5047837;28;20060;-79
2020/12/30 11:36:21;;;;;;;0.20;0.20;;;14.20;66.20;;;;;;5046512;28;20043;-79
2020/12/30 11:38:50;;;;;;;0.20;0.20;;;14.20;66.20;;;;;;5046552;28;20029;-79
2020/12/30 11:41:15;;;;;;;0.95;0.30;;;14.20;66.10;;;;;;5046517;28;20103;-79
2020/12/30 11:43:41;;;;;;;0.30;0.30;;;14.20;66.20;;;;;;5026092;28;20148;-79
2020/12/30 11:46:13;;;;;;;0.30;0.20;;;14.20;66.20;;;;;;5026790;28;20441;-79
2020/12/30 11:48:38;;;;;;;0.80;0.40;;;14.20;66.10;;;;;;5039272;28;20032;-78
2020/12/30 11:51:04;;;;;;;0.43;0.43;;;14.20;66.20;;;;;;5032595;28;20402;-79
2020/12/30 11:53:34;;;;;;;0.35;0.30;;;14.20;66.20;;;;;;5030149;28;20484;-79
2020/12/30 11:56:01;;;;;;;0.85;0.70;;;14.20;66.20;;;;;;5032030;28;20036;-79
2020/12/30 11:58:28;;;;;;;0.20;0.20;;;14.20;66.20;;;;;;5050237;28;20059;-79
2020/12/30 12:00:56;;;;;;;0.40;0.40;;;14.20;66.20;;;;;;5030793;28;20086;-78
2020/12/30 12:03:21;;;;;;;0.63;0.30;;;14.20;66.20;;;;;;5025725;28;20033;-78
2020/12/30 12:05:47;;;;;;;0.82;0.43;;;14.20;66.20;;;;;;5032338;28;20087;-82
2020/12/30 12:08:12;;;;;;;0.38;0.38;;;14.20;66.20;;;;;;5029113;28;20080;-78
2020/12/30 12:10:38;;;;;;;0.20;0.20;;;14.20;66.20;;;;;;5028130;28;20045;-80
2020/12/30 12:13:04;;;;;;;0.40;0.30;;;14.20;66.20;;;;;;5025363;28;20029;-79
2020/12/30 12:15:29;;;;;;;0.50;0.50;;;14.20;66.20;;;;;;5028649;28;20468;-79
2020/12/30 12:17:55;;;;;;;0.30;0.30;;;14.20;66.20;;;;;;5025240;28;20356;-80
2020/12/30 12:20:21;;;;;;;0.70;0.25;;;14.20;66.20;;;;;;5047915;28;20029;-79
2020/12/30 12:22:46;;;;;;;0.20;0.20;;;14.20;66.20;;;;;;5031677;28;20033;-77
2020/12/30 12:25:12;;;;;;;0.40;0.22;;;14.20;66.20;;;;;;5026594;28;20450;-77
2020/12/30 12:27:38;;;;;;;1.45;0.57;;;14.20;66.20;;;;;;5045643;28;20044;-76
2020/12/30 12:30:04;;;;;;;0.95;0.30;;;14.20;66.20;;;;;;5031941;28;20037;-77
2020/12/30 12:32:29;;;;;;;0.55;0.40;;;14.20;66.20;;;;;;5027297;28;20041;-77
2020/12/30 12:34:56;;;;;;;0.75;0.52;;;14.20;66.30;;;;;;5033579;28;20055;-77
2020/12/30 12:37:26;;;;;;;0.30;0.30;;;14.20;66.30;;;;;;5045061;28;20044;-77
2020/12/30 12:39:53;;;;;;;0.50;0.38;;;14.20;66.30;;;;;;5033155;28;20029;-77
2020/12/30 12:42:20;;;;;;;1.00;0.50;;;14.20;66.30;;;;;;5024600;28;20068;-77
2020/12/30 12:44:47;;;;;;;1.65;0.50;;;14.20;66.30;;;;;;5047920;28;20029;-79
2020/12/30 12:47:18;;;;;;;0.40;0.40;;;14.20;66.20;;;;;;5032793;28;20462;-77
2020/12/30 12:49:47;;;;;;;0.30;0.30;;;14.20;66.20;;;;;;5053342;28;20029;-75
2020/12/30 12:52:21;;;;;;;0.40;0.40;;;14.30;66.20;;;;;;5037871;28;20032;-77
2020/12/30 12:54:51;;;;;;;0.30;0.30;;;14.30;66.10;;;;;;5021997;28;20028;-75
2020/12/30 12:57:30;;;;;;;2.55;0.50;;;14.20;66.10;;;;;;5052079;28;20061;-78
2020/12/30 13:00:00;;;;;;;0.90;0.50;;;14.30;66.20;;;;;;5059297;28;20032;-78
2020/12/30 13:02:27;;;;;;;0.35;0.30;;;14.30;66.20;;;;;;5055625;28;20033;-78
2020/12/30 13:05:07;;;;;;;0.38;0.38;;;14.30;66.20;;;;;;5036447;28;20063;-80
2020/12/30 13:07:33;;;;;;;0.90;0.47;;;14.30;66.20;;;;;;5046498;28;20068;-79
2020/12/30 13:10:02;;;;;;;2.03;0.45;;;14.30;66.20;;;;;;5027187;28;20440;-79
2020/12/30 13:12:27;;;;;;;2.55;0.43;;;14.30;66.20;;;;;;5034100;28;20037;-79
2020/12/30 13:14:58;;;;;;;1.42;0.35;;;14.20;66.20;;;;;;5048573;28;20573;-79